Time;durP1;ratioP1;P1;durP2;ratioP2;P2;SDS_P1;SDS_P2;PMS_P1;PMS_P2;Temp;Humidity;BMP_temperature;BMP_pressure;BME280_temperature;BME280_humidity;BME280_pressure;Samples;Min_cycle;Max_cycle;Signal;HPM_P1;HPM_P2
2023/07/27 00:00:15;;;;;;;3.05;2.20;;;;;;;;;;5000731;28;20205;-70
2023/07/27 00:02:42;;;;;;;2.60;2.20;;;;;;;;;;4999528;28;20232;-70
2023/07/27 00:05:09;;;;;;;4.03;2.40;;;;;;;;;;5000323;28;20212;-70
2023/07/27 00:07:36;;;;;;;3.00;2.30;;;;;;;;;;5005851;28;20201;-70
2023/07/27 00:10:04;;;;;;;3.42;2.60;;;;;;;;;;5000010;28;20215;-70
2023/07/27 00:12:32;;;;;;;3.42;2.25;;;;;;;;;;5002546;28;20231;-71
2023/07/27 00:14:59;;;;;;;2.90;2.40;;;;;;;;;;5001427;28;20201;-70
2023/07/27 00:17:26;;;;;;;3.45;2.88;;;;;;;;;;5000914;28;20200;-70
2023/07/27 00:19:54;;;;;;;5.03;2.50;;;;;;;;;;4999143;28;20205;-70
2023/07/27 00:22:21;;;;;;;4.10;2.40;;;;;;;;;;5000974;28;20213;-70
2023/07/27 00:24:48;;;;;;;2.72;1.98;;;;;;;;;;5004611;28;20205;-70
2023/07/27 00:27:15;;;;;;;2.70;2.28;;;;;;;;;;5005347;28;20200;-70
2023/07/27 00:29:44;;;;;;;4.28;2.28;;;;;;;;;;4998454;28;20200;-70
2023/07/27 00:32:11;;;;;;;2.80;2.03;;;;;;;;;;5003663;28;20220;-70
2023/07/27 00:34:38;;;;;;;3.08;1.88;;;;;;;;;;5004517;28;20197;-71
2023/07/27 00:37:06;;;;;;;1.98;1.70;;;;;;;;;;5004792;28;20224;-70
2023/07/27 00:39:33;;;;;;;2.28;1.90;;;;;;;;;;4997648;28;20209;-71
2023/07/27 00:42:00;;;;;;;3.63;2.00;;;;;;;;;;5003162;28;20230;-70
2023/07/27 00:44:27;;;;;;;5.90;2.35;;;;;;;;;;5001079;28;20205;-70
2023/07/27 00:46:56;;;;;;;1.85;1.70;;;;;;;;;;5005354;28;20344;-70
2023/07/27 00:49:23;;;;;;;2.78;2.25;;;;;;;;;;5003369;28;20209;-70
2023/07/27 00:51:50;;;;;;;2.33;2.08;;;;;;;;;;5001586;28;20208;-70
2023/07/27 00:54:18;;;;;;;2.78;2.28;;;;;;;;;;5001202;28;20204;-70
2023/07/27 00:56:45;;;;;;;2.55;2.20;;;;;;;;;;4999913;28;20283;-70
2023/07/27 00:59:12;;;;;;;2.72;2.00;;;;;;;;;;5000022;28;20202;-70
2023/07/27 01:01:40;;;;;;;3.75;2.28;;;;;;;;;;5002165;28;20326;-71
2023/07/27 01:04:08;;;;;;;1.85;1.70;;;;;;;;;;4998753;28;20207;-70
2023/07/27 01:06:35;;;;;;;3.58;2.22;;;;;;;;;;4997395;28;20215;-70
2023/07/27 01:09:03;;;;;;;3.13;2.00;;;;;;;;;;5000940;28;20201;-71
2023/07/27 01:11:38;;;;;;;3.85;2.40;;;;;;;;;;5002718;28;20262;-70
2023/07/27 01:14:10;;;;;;;5.10;2.22;;;;;;;;;;5000832;28;20203;-70
2023/07/27 01:16:40;;;;;;;2.10;1.83;;;;;;;;;;4999859;28;20220;-70
2023/07/27 01:19:17;;;;;;;2.53;2.03;;;;;;;;;;4994485;28;20207;-70
2023/07/27 01:21:47;;;;;;;3.20;2.15;;;;;;;;;;4995200;28;20214;-70
2023/07/27 01:24:32;;;;;;;2.03;1.63;;;;;;;;;;4999321;28;20216;-70
2023/07/27 01:27:16;;;;;;;3.47;2.05;;;;;;;;;;5001245;28;20224;-71
2023/07/27 01:29:57;;;;;;;2.78;2.00;;;;;;;;;;4997881;28;20214;-71
2023/07/27 01:32:26;;;;;;;1.88;1.65;;;;;;;;;;5000851;28;20212;-70
2023/07/27 01:34:57;;;;;;;3.67;1.75;;;;;;;;;;4997521;28;20205;-69
2023/07/27 01:37:27;;;;;;;2.53;1.80;;;;;;;;;;4999258;28;20225;-70
2023/07/27 01:39:55;;;;;;;2.70;1.80;;;;;;;;;;5000475;28;20215;-71
2023/07/27 01:42:24;;;;;;;2.40;1.92;;;;;;;;;;4996995;28;20232;-70
2023/07/27 01:44:52;;;;;;;3.15;2.00;;;;;;;;;;5002366;28;20209;-70
2023/07/27 01:47:19;;;;;;;4.28;1.75;;;;;;;;;;5003186;28;20244;-70
2023/07/27 01:49:49;;;;;;;2.28;2.00;;;;;;;;;;5003832;28;20206;-70
2023/07/27 01:52:16;;;;;;;2.13;1.92;;;;;;;;;;5006687;28;20236;-70
2023/07/27 01:54:45;;;;;;;3.20;2.00;;;;;;;;;;5002855;28;20212;-70
2023/07/27 01:57:12;;;;;;;3.63;1.92;;;;;;;;;;5003237;28;20201;-70
2023/07/27 01:59:40;;;;;;;5.78;2.22;;;;;;;;;;5004918;28;20212;-70
2023/07/27 02:02:07;;;;;;;4.88;2.05;;;;;;;;;;4996980;28;20204;-70
2023/07/27 02:04:35;;;;;;;3.30;1.70;;;;;;;;;;5000862;28;20204;-70
2023/07/27 02:07:03;;;;;;;2.58;2.00;;;;;;;;;;4999930;28;20207;-70
2023/07/27 02:09:31;;;;;;;4.53;2.45;;;;;;;;;;5003710;28;20224;-70
2023/07/27 02:12:02;;;;;;;4.60;2.45;;;;;;;;;;5002787;28;20232;-70
2023/07/27 02:14:33;;;;;;;3.97;2.10;;;;;;;;;;5004881;28;20220;-70
2023/07/27 02:17:02;;;;;;;2.30;1.90;;;;;;;;;;5004560;28;20203;-70
2023/07/27 02:19:31;;;;;;;2.08;1.80;;;;;;;;;;5001658;28;20219;-70
2023/07/27 02:21:58;;;;;;;2.85;2.08;;;;;;;;;;5001192;28;20234;-69
2023/07/27 02:24:27;;;;;;;4.82;2.15;;;;;;;;;;5006897;28;20201;-70
2023/07/27 02:26:56;;;;;;;2.50;2.05;;;;;;;;;;5002332;28;20206;-69
2023/07/27 02:29:23;;;;;;;2.30;2.10;;;;;;;;;;5001105;28;20203;-70
2023/07/27 02:31:50;;;;;;;3.55;2.10;;;;;;;;;;5001252;28;20206;-70
2023/07/27 02:34:17;;;;;;;1.98;1.75;;;;;;;;;;5002070;28;20295;-70
2023/07/27 02:36:45;;;;;;;4.15;2.22;;;;;;;;;;5001536;28;20204;-70
2023/07/27 02:39:12;;;;;;;2.75;1.77;;;;;;;;;;5000181;28;20217;-69
2023/07/27 02:41:40;;;;;;;2.67;2.17;;;;;;;;;;5000129;28;20212;-69
2023/07/27 02:44:07;;;;;;;2.70;2.50;;;;;;;;;;5004024;28;20227;-70
2023/07/27 02:46:35;;;;;;;6.13;2.85;;;;;;;;;;4997861;28;20241;-70
2023/07/27 02:49:02;;;;;;;2.67;2.42;;;;;;;;;;5000678;28;20202;-69
2023/07/27 02:51:29;;;;;;;2.30;2.10;;;;;;;;;;5002361;28;20206;-70
2023/07/27 02:53:56;;;;;;;4.60;2.05;;;;;;;;;;4998488;28;20197;-69
2023/07/27 02:56:24;;;;;;;2.65;2.30;;;;;;;;;;4998048;28;20283;-70
2023/07/27 02:58:52;;;;;;;3.15;2.40;;;;;;;;;;5001720;28;20201;-70
2023/07/27 03:01:20;;;;;;;4.90;2.70;;;;;;;;;;5001705;28;20200;-70
2023/07/27 03:03:47;;;;;;;3.33;2.80;;;;;;;;;;5005359;28;20239;-69
2023/07/27 03:06:14;;;;;;;2.60;2.40;;;;;;;;;;5003304;28;20231;-69
2023/07/27 03:08:41;;;;;;;4.82;2.83;;;;;;;;;;5004460;28;20213;-70
2023/07/27 03:11:08;;;;;;;4.22;2.55;;;;;;;;;;5001868;28;20247;-69
2023/07/27 03:13:35;;;;;;;2.95;2.28;;;;;;;;;;5003912;28;20209;-69
2023/07/27 03:16:05;;;;;;;3.25;2.20;;;;;;;;;;5004401;28;20201;-69
2023/07/27 03:18:32;;;;;;;2.65;2.38;;;;;;;;;;4999423;28;20213;-69
2023/07/27 03:20:59;;;;;;;2.30;2.10;;;;;;;;;;5003207;28;20205;-69
2023/07/27 03:23:26;;;;;;;3.05;2.20;;;;;;;;;;5000538;28;20225;-69
2023/07/27 03:25:54;;;;;;;2.22;2.03;;;;;;;;;;4998331;28;20229;-69
2023/07/27 03:28:21;;;;;;;8.40;2.30;;;;;;;;;;5002923;28;20201;-69
2023/07/27 03:30:48;;;;;;;3.38;2.03;;;;;;;;;;5000668;28;20220;-69
2023/07/27 03:33:16;;;;;;;2.42;2.30;;;;;;;;;;5002042;28;20204;-69
2023/07/27 03:35:44;;;;;;;2.95;2.53;;;;;;;;;;5001450;28;20209;-68
2023/07/27 03:38:11;;;;;;;3.55;2.13;;;;;;;;;;5001688;28;20272;-68
2023/07/27 03:40:38;;;;;;;2.30;2.10;;;;;;;;;;5003567;28;20220;-68
2023/07/27 03:43:05;;;;;;;3.45;1.75;;;;;;;;;;5002720;28;20228;-68
2023/07/27 03:45:33;;;;;;;3.45;2.38;;;;;;;;;;5000185;28;20196;-68
2023/07/27 03:48:00;;;;;;;2.40;2.20;;;;;;;;;;4998666;28;20296;-68
2023/07/27 03:50:28;;;;;;;3.40;2.35;;;;;;;;;;5000016;28;20201;-68
2023/07/27 03:52:56;;;;;;;3.03;2.60;;;;;;;;;;5005217;28;20197;-67
2023/07/27 03:55:23;;;;;;;3.95;2.55;;;;;;;;;;5003331;28;20215;-67
2023/07/27 03:57:51;;;;;;;4.22;2.17;;;;;;;;;;5000811;28;20208;-68
2023/07/27 04:00:18;;;;;;;3.40;2.40;;;;;;;;;;5001149;28;20209;-68
2023/07/27 04:02:45;;;;;;;2.80;2.30;;;;;;;;;;5002775;28;20205;-68
2023/07/27 04:05:12;;;;;;;4.60;3.00;;;;;;;;;;5003521;28;20216;-67
2023/07/27 04:07:41;;;;;;;2.47;2.28;;;;;;;;;;5001056;28;20211;-68
2023/07/27 04:10:08;;;;;;;3.65;2.58;;;;;;;;;;5000989;28;20221;-68
2023/07/27 04:12:35;;;;;;;2.83;2.63;;;;;;;;;;5001419;28;20205;-68
2023/07/27 04:15:03;;;;;;;4.38;2.55;;;;;;;;;;5001482;28;20220;-69
2023/07/27 04:17:30;;;;;;;4.53;2.40;;;;;;;;;;5001895;28;20215;-67
2023/07/27 04:19:57;;;;;;;4.05;2.40;;;;;;;;;;5004550;28;20247;-67
2023/07/27 04:22:25;;;;;;;2.88;2.38;;;;;;;;;;5001160;28;20205;-68
2023/07/27 04:24:53;;;;;;;4.28;2.45;;;;;;;;;;5002230;28;20315;-67
2023/07/27 04:27:20;;;;;;;5.38;2.60;;;;;;;;;;5001981;28;20216;-68
2023/07/27 04:29:48;;;;;;;2.88;2.47;;;;;;;;;;5002347;28;20208;-68
2023/07/27 04:32:15;;;;;;;4.75;2.50;;;;;;;;;;5001032;28;20198;-67
2023/07/27 04:34:42;;;;;;;2.97;2.30;;;;;;;;;;5002533;28;20209;-67
2023/07/27 04:37:09;;;;;;;3.88;2.35;;;;;;;;;;5000265;28;20207;-68
2023/07/27 04:39:36;;;;;;;2.80;2.55;;;;;;;;;;4993756;28;20209;-68
2023/07/27 04:42:05;;;;;;;2.58;2.00;;;;;;;;;;5002075;28;20237;-68
2023/07/27 04:44:32;;;;;;;3.30;2.50;;;;;;;;;;5003321;28;20314;-67
2023/07/27 04:46:59;;;;;;;3.03;2.13;;;;;;;;;;5002498;28;20238;-67
2023/07/27 04:49:27;;;;;;;2.50;1.95;;;;;;;;;;5001777;28;20201;-68
2023/07/27 04:51:54;;;;;;;2.58;1.90;;;;;;;;;;5002422;28;20201;-67
2023/07/27 04:54:21;;;;;;;4.80;2.08;;;;;;;;;;5001112;28;20209;-67
2023/07/27 04:56:48;;;;;;;3.42;2.45;;;;;;;;;;4995568;28;20201;-67
2023/07/27 04:59:17;;;;;;;3.85;2.20;;;;;;;;;;5001107;28;20209;-67
2023/07/27 05:01:44;;;;;;;2.72;2.00;;;;;;;;;;4997657;28;20272;-67
2023/07/27 05:04:11;;;;;;;2.47;2.10;;;;;;;;;;4997698;28;20224;-67
2023/07/27 05:06:40;;;;;;;3.40;2.03;;;;;;;;;;4998453;28;20204;-67
2023/07/27 05:09:07;;;;;;;2.58;1.92;;;;;;;;;;4998565;28;20201;-67
2023/07/27 05:11:35;;;;;;;3.38;2.10;;;;;;;;;;4998789;28;20209;-68
2023/07/27 05:14:02;;;;;;;2.47;2.20;;;;;;;;;;5001025;28;20200;-67
2023/07/27 05:16:31;;;;;;;2.58;2.00;;;;;;;;;;5000717;28;20306;-67
2023/07/27 05:18:58;;;;;;;2.38;2.10;;;;;;;;;;5003554;28;20205;-67
2023/07/27 05:21:25;;;;;;;2.38;2.17;;;;;;;;;;5004727;28;20209;-67
2023/07/27 05:23:53;;;;;;;3.17;2.08;;;;;;;;;;5000500;28;20216;-67
2023/07/27 05:26:20;;;;;;;2.47;2.20;;;;;;;;;;5005855;28;20308;-67
2023/07/27 05:28:47;;;;;;;2.53;2.05;;;;;;;;;;4996327;28;20200;-68
2023/07/27 05:31:15;;;;;;;2.97;2.35;;;;;;;;;;5005331;28;20209;-67
2023/07/27 05:33:43;;;;;;;2.33;2.22;;;;;;;;;;5003046;28;20216;-68
2023/07/27 05:36:10;;;;;;;2.78;2.42;;;;;;;;;;5004619;28;20292;-67
2023/07/27 05:38:37;;;;;;;2.60;2.35;;;;;;;;;;5002114;28;20221;-68
2023/07/27 05:41:05;;;;;;;4.68;2.38;;;;;;;;;;5006790;28;20201;-68
2023/07/27 05:43:32;;;;;;;2.85;2.40;;;;;;;;;;5004058;28;20232;-68
2023/07/27 05:45:59;;;;;;;3.45;2.15;;;;;;;;;;5004903;28;20239;-68
2023/07/27 05:48:26;;;;;;;3.55;2.25;;;;;;;;;;5000561;28;20287;-68
2023/07/27 05:50:55;;;;;;;4.80;2.45;;;;;;;;;;5003500;28;20217;-67
2023/07/27 05:53:22;;;;;;;3.05;2.47;;;;;;;;;;5000075;28;20207;-68
2023/07/27 05:55:51;;;;;;;2.10;1.90;;;;;;;;;;5002480;28;20209;-70
2023/07/27 05:58:18;;;;;;;4.45;2.60;;;;;;;;;;5005948;28;20201;-68
2023/07/27 06:00:45;;;;;;;3.08;2.47;;;;;;;;;;4998519;28;20216;-68
2023/07/27 06:03:12;;;;;;;3.85;2.92;;;;;;;;;;4999586;28;20201;-68
2023/07/27 06:05:44;;;;;;;3.17;2.38;;;;;;;;;;5001236;28;20263;-68
2023/07/27 06:08:13;;;;;;;3.22;2.67;;;;;;;;;;5000645;28;20274;-69
2023/07/27 06:10:40;;;;;;;7.72;2.50;;;;;;;;;;5002596;28;20205;-68
2023/07/27 06:13:07;;;;;;;3.55;3.17;;;;;;;;;;5006593;28;20200;-69
2023/07/27 06:15:34;;;;;;;3.35;3.00;;;;;;;;;;4995415;28;20213;-68
2023/07/27 06:18:02;;;;;;;2.50;2.30;;;;;;;;;;5000846;28;20212;-69
2023/07/27 06:20:29;;;;;;;3.10;2.78;;;;;;;;;;4998998;28;20217;-68
2023/07/27 06:22:56;;;;;;;3.55;2.75;;;;;;;;;;5004171;28;20204;-68
2023/07/27 06:25:25;;;;;;;2.97;2.63;;;;;;;;;;5003384;28;20217;-70
2023/07/27 06:27:52;;;;;;;2.70;2.50;;;;;;;;;;5008354;28;20201;-69
2023/07/27 06:30:20;;;;;;;2.63;2.42;;;;;;;;;;5010990;28;20208;-69
2023/07/27 06:32:47;;;;;;;3.15;2.20;;;;;;;;;;5006279;28;20220;-70
2023/07/27 06:35:14;;;;;;;4.63;2.78;;;;;;;;;;4999181;28;20266;-68
2023/07/27 06:37:42;;;;;;;3.13;2.55;;;;;;;;;;5001965;28;20206;-70
2023/07/27 06:40:10;;;;;;;4.22;2.40;;;;;;;;;;5005712;28;20263;-70
2023/07/27 06:42:39;;;;;;;3.92;2.60;;;;;;;;;;5005143;28;20293;-70
2023/07/27 06:45:07;;;;;;;3.00;2.35;;;;;;;;;;4999373;28;20232;-69
2023/07/27 06:47:34;;;;;;;2.70;2.50;;;;;;;;;;5002707;28;20233;-69
2023/07/27 06:50:01;;;;;;;3.42;2.75;;;;;;;;;;5004010;28;20209;-70
2023/07/27 06:52:29;;;;;;;2.85;2.60;;;;;;;;;;4998454;28;20205;-70
2023/07/27 06:54:56;;;;;;;2.95;2.45;;;;;;;;;;4998453;28;20209;-71
2023/07/27 06:57:26;;;;;;;2.92;2.58;;;;;;;;;;4991571;28;20208;-69
2023/07/27 06:59:54;;;;;;;3.30;3.03;;;;;;;;;;5001690;28;20229;-70
2023/07/27 07:02:22;;;;;;;3.35;3.10;;;;;;;;;;4998808;28;20212;-70
2023/07/27 07:04:49;;;;;;;2.90;2.65;;;;;;;;;;5003914;28;20228;-70
2023/07/27 07:07:16;;;;;;;3.15;2.95;;;;;;;;;;5001229;28;20212;-70
2023/07/27 07:09:44;;;;;;;2.40;2.20;;;;;;;;;;5006695;28;20208;-69
2023/07/27 07:12:11;;;;;;;3.03;2.53;;;;;;;;;;5003938;28;20211;-70
2023/07/27 07:14:38;;;;;;;2.50;2.25;;;;;;;;;;5001791;28;20197;-70
2023/07/27 07:17:07;;;;;;;3.00;2.80;;;;;;;;;;5002993;28;20232;-69
2023/07/27 07:19:34;;;;;;;3.35;3.05;;;;;;;;;;5006247;28;20245;-70
2023/07/27 07:22:01;;;;;;;2.88;2.45;;;;;;;;;;5007184;28;20201;-70
2023/07/27 07:24:28;;;;;;;2.63;2.40;;;;;;;;;;5007172;28;20250;-70
2023/07/27 07:26:56;;;;;;;3.53;2.88;;;;;;;;;;5006412;28;20219;-70
2023/07/27 07:29:23;;;;;;;2.83;2.63;;;;;;;;;;4999233;28;20213;-70
2023/07/27 07:31:50;;;;;;;2.92;2.70;;;;;;;;;;5001203;28;20220;-69
2023/07/27 07:34:19;;;;;;;3.35;2.65;;;;;;;;;;5004016;28;20200;-69
2023/07/27 07:36:46;;;;;;;2.78;2.58;;;;;;;;;;5005056;28;20209;-70
2023/07/27 07:39:14;;;;;;;2.92;2.50;;;;;;;;;;5002845;28;20209;-70
2023/07/27 07:41:41;;;;;;;3.10;2.80;;;;;;;;;;4999290;28;20251;-70
2023/07/27 07:44:08;;;;;;;5.20;3.30;;;;;;;;;;5002254;28;20207;-71
2023/07/27 07:46:36;;;;;;;3.65;2.90;;;;;;;;;;4997412;28;20230;-69
2023/07/27 07:49:03;;;;;;;4.53;3.05;;;;;;;;;;5000522;28;20205;-70
2023/07/27 07:51:31;;;;;;;4.07;3.10;;;;;;;;;;5000476;28;20197;-69
2023/07/27 07:53:58;;;;;;;3.88;3.47;;;;;;;;;;5001868;28;20205;-70
2023/07/27 07:56:26;;;;;;;4.47;3.13;;;;;;;;;;5002393;28;20201;-69
2023/07/27 07:58:53;;;;;;;3.33;3.03;;;;;;;;;;4997353;28;20227;-70
2023/07/27 08:01:20;;;;;;;4.07;3.20;;;;;;;;;;4998202;28;20218;-70
2023/07/27 08:03:47;;;;;;;3.75;3.15;;;;;;;;;;5002247;28;20225;-70
2023/07/27 08:06:15;;;;;;;3.53;3.28;;;;;;;;;;5004663;28;20221;-70
2023/07/27 08:08:43;;;;;;;5.00;3.00;;;;;;;;;;4999601;28;20213;-71
2023/07/27 08:11:10;;;;;;;4.80;3.25;;;;;;;;;;5005019;28;20209;-70
2023/07/27 08:13:37;;;;;;;3.72;3.28;;;;;;;;;;4999037;28;20211;-70
2023/07/27 08:16:05;;;;;;;3.50;3.20;;;;;;;;;;5001944;28;20207;-70
2023/07/27 08:18:32;;;;;;;3.72;3.33;;;;;;;;;;4999127;28;20208;-71
2023/07/27 08:21:00;;;;;;;4.18;3.42;;;;;;;;;;5003636;28;20197;-69
2023/07/27 08:23:28;;;;;;;4.13;3.45;;;;;;;;;;5001566;28;20209;-70
2023/07/27 08:25:57;;;;;;;4.90;2.90;;;;;;;;;;5001148;28;20323;-70
2023/07/27 08:28:24;;;;;;;3.60;3.30;;;;;;;;;;4996788;28;20232;-70
2023/07/27 08:30:51;;;;;;;5.28;3.08;;;;;;;;;;4994896;28;20208;-70
2023/07/27 08:33:19;;;;;;;7.32;3.40;;;;;;;;;;4998586;28;20239;-71
2023/07/27 08:35:47;;;;;;;4.30;3.30;;;;;;;;;;5003041;28;20205;-70
2023/07/27 08:38:14;;;;;;;3.72;3.20;;;;;;;;;;4999419;28;20208;-70
2023/07/27 08:40:41;;;;;;;6.32;3.30;;;;;;;;;;5003156;28;20209;-69
2023/07/27 08:43:09;;;;;;;4.15;3.40;;;;;;;;;;5002976;28;20208;-70
2023/07/27 08:45:39;;;;;;;3.50;3.20;;;;;;;;;;5002788;28;20228;-70
2023/07/27 08:48:06;;;;;;;5.80;3.42;;;;;;;;;;4997891;28;20206;-70
2023/07/27 08:50:35;;;;;;;4.22;3.10;;;;;;;;;;4998065;28;20219;-70
2023/07/27 08:53:02;;;;;;;5.38;3.40;;;;;;;;;;5000445;28;20211;-70
2023/07/27 08:55:29;;;;;;;4.13;3.30;;;;;;;;;;5002998;28;20280;-69
2023/07/27 08:57:56;;;;;;;4.68;3.67;;;;;;;;;;5001239;28;20208;-69
2023/07/27 09:00:25;;;;;;;4.75;3.38;;;;;;;;;;5004103;28;20291;-69
2023/07/27 09:02:52;;;;;;;3.42;2.97;;;;;;;;;;4999699;28;20213;-68
2023/07/27 09:05:19;;;;;;;3.00;2.75;;;;;;;;;;5002600;28;20240;-68
2023/07/27 09:07:50;;;;;;;3.33;2.97;;;;;;;;;;5003811;28;20300;-69
2023/07/27 09:10:17;;;;;;;4.25;3.10;;;;;;;;;;4996469;28;20209;-71
2023/07/27 09:12:45;;;;;;;4.25;3.03;;;;;;;;;;4997842;28;20237;-67
2023/07/27 09:15:16;;;;;;;5.18;3.13;;;;;;;;;;4994658;28;20216;-67
2023/07/27 09:17:45;;;;;;;3.33;2.97;;;;;;;;;;4999980;28;20219;-67
2023/07/27 09:20:13;;;;;;;2.63;2.42;;;;;;;;;;5000070;28;20209;-68
2023/07/27 09:22:40;;;;;;;3.20;2.90;;;;;;;;;;4999455;28;20211;-67
2023/07/27 09:25:08;;;;;;;2.88;2.58;;;;;;;;;;4997697;28;20217;-69
2023/07/27 09:27:44;;;;;;;2.95;2.60;;;;;;;;;;5001590;28;20235;-68
2023/07/27 09:30:12;;;;;;;2.88;2.63;;;;;;;;;;5001104;28;20316;-67
2023/07/27 09:32:40;;;;;;;2.58;2.38;;;;;;;;;;5003771;28;20329;-67
2023/07/27 09:35:13;;;;;;;2.60;2.40;;;;;;;;;;5000591;28;20201;-68
2023/07/27 09:37:44;;;;;;;3.05;2.75;;;;;;;;;;4999323;28;20236;-67
2023/07/27 09:40:13;;;;;;;3.53;2.75;;;;;;;;;;4998873;28;20212;-68
2023/07/27 09:42:41;;;;;;;2.30;2.17;;;;;;;;;;5001485;28;20247;-67
2023/07/27 09:45:09;;;;;;;2.65;2.45;;;;;;;;;;4996407;28;20236;-67
2023/07/27 09:47:36;;;;;;;2.22;2.13;;;;;;;;;;4997561;28;20237;-68
2023/07/27 09:50:04;;;;;;;2.05;1.95;;;;;;;;;;5001021;28;20231;-67
2023/07/27 09:52:32;;;;;;;2.15;1.95;;;;;;;;;;4999995;28;20213;-68
2023/07/27 09:55:00;;;;;;;2.30;2.10;;;;;;;;;;4999751;28;20212;-68
2023/07/27 09:57:28;;;;;;;2.03;1.90;;;;;;;;;;5000087;28;20205;-67
2023/07/27 09:59:55;;;;;;;3.92;1.92;;;;;;;;;;5000289;28;20292;-68
2023/07/27 10:02:22;;;;;;;2.22;2.13;;;;;;;;;;4996025;28;20201;-68
2023/07/27 10:04:50;;;;;;;2.20;2.00;;;;;;;;;;4997562;28;20201;-67
2023/07/27 10:07:18;;;;;;;2.03;1.80;;;;;;;;;;5004711;28;20208;-68
2023/07/27 10:09:47;;;;;;;2.05;1.95;;;;;;;;;;5008016;28;20209;-67
2023/07/27 10:12:27;;;;;;;2.13;1.80;;;;;;;;;;5001977;28;20237;-68
2023/07/27 10:15:09;;;;;;;2.20;2.05;;;;;;;;;;5007546;28;20260;-68
2023/07/27 10:17:42;;;;;;;1.90;1.80;;;;;;;;;;5002128;28;20205;-68
2023/07/27 10:20:21;;;;;;;4.40;1.67;;;;;;;;;;5004026;28;20206;-68
2023/07/27 10:22:51;;;;;;;1.80;1.70;;;;;;;;;;5007333;28;20209;-68
2023/07/27 10:25:20;;;;;;;1.95;1.70;;;;;;;;;;5002765;28;20224;-69
2023/07/27 10:27:57;;;;;;;1.35;1.30;;;;;;;;;;4993693;28;20256;-67
2023/07/27 10:30:25;;;;;;;1.55;1.33;;;;;;;;;;4999965;28;20201;-68
2023/07/27 10:33:15;;;;;;;1.70;1.60;;;;;;;;;;5003624;28;20208;-67
2023/07/27 10:36:01;;;;;;;1.70;1.60;;;;;;;;;;5003062;28;20216;-68
2023/07/27 10:38:28;;;;;;;1.63;1.40;;;;;;;;;;5001893;28;20201;-68
2023/07/27 10:40:56;;;;;;;1.40;1.30;;;;;;;;;;5006443;28;20209;-67
2023/07/27 10:43:23;;;;;;;1.17;1.17;;;;;;;;;;5003104;28;20221;-68
2023/07/27 10:45:53;;;;;;;1.20;1.17;;;;;;;;;;5002917;28;20232;-69
2023/07/27 10:48:20;;;;;;;1.40;1.35;;;;;;;;;;5002532;28;20231;-68
2023/07/27 10:50:47;;;;;;;1.30;1.20;;;;;;;;;;4995318;28;20224;-68
2023/07/27 10:53:15;;;;;;;2.03;1.30;;;;;;;;;;5001003;28;20213;-68
2023/07/27 10:55:42;;;;;;;1.42;1.33;;;;;;;;;;5002426;28;20193;-69
2023/07/27 10:58:13;;;;;;;1.25;1.15;;;;;;;;;;5001761;28;20256;-68
2023/07/27 11:00:40;;;;;;;2.53;1.30;;;;;;;;;;5001338;28;20213;-68
2023/07/27 11:03:08;;;;;;;1.63;1.52;;;;;;;;;;5004980;28;20205;-69
2023/07/27 11:05:35;;;;;;;1.42;1.20;;;;;;;;;;5005173;28;20214;-68
2023/07/27 11:08:03;;;;;;;1.45;1.35;;;;;;;;;;5009242;28;20236;-69
2023/07/27 11:10:32;;;;;;;1.35;1.30;;;;;;;;;;4999104;28;20197;-68
2023/07/27 11:12:59;;;;;;;2.50;1.38;;;;;;;;;;5002784;28;20198;-69
2023/07/27 11:15:29;;;;;;;1.25;1.15;;;;;;;;;;4999619;28;20208;-68
2023/07/27 11:17:58;;;;;;;2.10;1.40;;;;;;;;;;5004597;28;20260;-67
2023/07/27 11:20:27;;;;;;;1.60;1.50;;;;;;;;;;5002019;28;20205;-68
2023/07/27 11:22:56;;;;;;;2.33;1.60;;;;;;;;;;5004745;28;20225;-68
2023/07/27 11:25:23;;;;;;;1.95;1.55;;;;;;;;;;5006620;28;20200;-68
2023/07/27 11:27:51;;;;;;;1.63;1.48;;;;;;;;;;5000725;28;20236;-68
2023/07/27 11:30:21;;;;;;;2.15;1.52;;;;;;;;;;4994641;28;20216;-67
2023/07/27 11:32:57;;;;;;;2.20;1.50;;;;;;;;;;4996095;28;20213;-68
2023/07/27 11:35:25;;;;;;;1.80;1.70;;;;;;;;;;5002500;28;20200;-68
2023/07/27 11:37:52;;;;;;;1.65;1.55;;;;;;;;;;5002270;28;20216;-67
2023/07/27 11:40:19;;;;;;;2.05;1.90;;;;;;;;;;5000215;28;20197;-68
2023/07/27 11:42:47;;;;;;;1.73;1.63;;;;;;;;;;5004297;28;20208;-67
2023/07/27 11:45:14;;;;;;;1.90;1.80;;;;;;;;;;4997969;28;20202;-68
2023/07/27 11:47:41;;;;;;;2.13;2.00;;;;;;;;;;4996700;28;20250;-69
2023/07/27 11:50:11;;;;;;;1.98;1.88;;;;;;;;;;5006237;28;20230;-68
2023/07/27 11:52:38;;;;;;;1.90;1.80;;;;;;;;;;5001862;28;20288;-68
2023/07/27 11:55:06;;;;;;;1.80;1.70;;;;;;;;;;5002586;28;20201;-67
2023/07/27 11:57:33;;;;;;;2.35;1.90;;;;;;;;;;4996887;28;20203;-67
2023/07/27 12:00:03;;;;;;;3.25;1.80;;;;;;;;;;5005011;28;20224;-68
2023/07/27 12:02:33;;;;;;;2.45;1.88;;;;;;;;;;5005223;28;20196;-68
2023/07/27 12:05:00;;;;;;;1.90;1.80;;;;;;;;;;5001307;28;20204;-68
2023/07/27 12:07:34;;;;;;;2.00;1.90;;;;;;;;;;5004032;28;20304;-69
2023/07/27 12:10:01;;;;;;;2.00;1.90;;;;;;;;;;4999044;28;20241;-68
2023/07/27 12:12:28;;;;;;;1.90;1.80;;;;;;;;;;5000461;28;20201;-68
2023/07/27 12:14:58;;;;;;;1.90;1.80;;;;;;;;;;5001023;28;20197;-69
2023/07/27 12:17:25;;;;;;;2.40;2.20;;;;;;;;;;4999364;28;20208;-68
2023/07/27 12:19:52;;;;;;;1.90;1.80;;;;;;;;;;4995418;28;20214;-69
2023/07/27 12:22:20;;;;;;;2.47;2.20;;;;;;;;;;5001983;28;20204;-68
2023/07/27 12:24:49;;;;;;;2.30;2.10;;;;;;;;;;5000945;28;20204;-68
2023/07/27 12:27:16;;;;;;;2.13;2.03;;;;;;;;;;5002219;28;20221;-68
2023/07/27 12:29:43;;;;;;;2.40;2.20;;;;;;;;;;5003075;28;20230;-68
2023/07/27 12:32:10;;;;;;;2.42;2.22;;;;;;;;;;5003384;28;20197;-68
2023/07/27 12:34:37;;;;;;;2.65;2.38;;;;;;;;;;5000424;28;20204;-68
2023/07/27 12:37:08;;;;;;;2.60;2.40;;;;;;;;;;5000851;28;20213;-68
2023/07/27 12:39:36;;;;;;;2.30;2.20;;;;;;;;;;5003942;28;20200;-68
2023/07/27 12:42:05;;;;;;;2.70;2.50;;;;;;;;;;5006112;28;20322;-68
2023/07/27 12:44:32;;;;;;;2.70;2.50;;;;;;;;;;5000107;28;20232;-68
2023/07/27 12:46:59;;;;;;;2.45;2.35;;;;;;;;;;5004268;28;20239;-68
2023/07/27 12:49:26;;;;;;;3.47;2.40;;;;;;;;;;5000696;28;20204;-68
2023/07/27 12:51:53;;;;;;;5.28;2.60;;;;;;;;;;4998963;28;20206;-67
2023/07/27 12:54:21;;;;;;;2.97;2.45;;;;;;;;;;4998838;28;20215;-68
2023/07/27 12:56:48;;;;;;;3.65;2.70;;;;;;;;;;5004115;28;20211;-68
2023/07/27 12:59:17;;;;;;;3.97;2.20;;;;;;;;;;5005979;28;20243;-68
2023/07/27 13:01:44;;;;;;;2.72;2.53;;;;;;;;;;5005062;28;20196;-68
2023/07/27 13:04:11;;;;;;;2.88;2.58;;;;;;;;;;4994471;28;20220;-69
2023/07/27 13:06:39;;;;;;;3.65;2.22;;;;;;;;;;5000390;28;20232;-68
2023/07/27 13:09:07;;;;;;;2.85;2.45;;;;;;;;;;5003533;28;20205;-68
2023/07/27 13:11:34;;;;;;;3.10;2.80;;;;;;;;;;4997227;28;20208;-68
2023/07/27 13:14:02;;;;;;;4.82;2.55;;;;;;;;;;4999292;28;20220;-68
2023/07/27 13:16:31;;;;;;;2.78;2.65;;;;;;;;;;4998680;28;20200;-69
2023/07/27 13:18:58;;;;;;;4.53;2.70;;;;;;;;;;4995218;28;20204;-68
2023/07/27 13:21:25;;;;;;;3.25;3.00;;;;;;;;;;4998881;28;20211;-68
2023/07/27 13:23:52;;;;;;;3.67;3.25;;;;;;;;;;4998345;28;20213;-69
2023/07/27 13:26:20;;;;;;;3.47;3.17;;;;;;;;;;5005171;28;20220;-68
2023/07/27 13:28:47;;;;;;;3.90;3.50;;;;;;;;;;4998213;28;20216;-69
2023/07/27 13:31:18;;;;;;;3.42;3.20;;;;;;;;;;4996150;28;20201;-69
2023/07/27 13:33:47;;;;;;;3.72;3.42;;;;;;;;;;5002710;28;20209;-68
2023/07/27 13:36:14;;;;;;;3.63;3.40;;;;;;;;;;5001899;28;20200;-70
2023/07/27 13:38:41;;;;;;;3.83;3.45;;;;;;;;;;4997037;28;20201;-68
2023/07/27 13:41:08;;;;;;;4.10;3.72;;;;;;;;;;5001552;28;20198;-68
2023/07/27 13:43:36;;;;;;;4.18;3.80;;;;;;;;;;5005014;28;20211;-68
2023/07/27 13:46:03;;;;;;;4.35;3.95;;;;;;;;;;5002914;28;20207;-68
2023/07/27 13:48:30;;;;;;;4.75;3.72;;;;;;;;;;5006403;28;20201;-68
2023/07/27 13:50:59;;;;;;;4.32;3.92;;;;;;;;;;5002270;28;20197;-68
2023/07/27 13:53:26;;;;;;;4.43;3.65;;;;;;;;;;5004547;28;20200;-68
2023/07/27 13:55:53;;;;;;;4.28;3.70;;;;;;;;;;5005461;28;20213;-68
2023/07/27 13:58:20;;;;;;;3.28;3.08;;;;;;;;;;5006961;28;20198;-68
2023/07/27 14:00:49;;;;;;;3.55;3.25;;;;;;;;;;5006212;28;20204;-68
2023/07/27 14:03:16;;;;;;;5.47;3.63;;;;;;;;;;5007394;28;20208;-69
2023/07/27 14:05:43;;;;;;;6.97;4.13;;;;;;;;;;5005291;28;20204;-68
2023/07/27 14:08:12;;;;;;;4.45;4.05;;;;;;;;;;5004579;28;20220;-69
2023/07/27 14:10:39;;;;;;;4.28;3.85;;;;;;;;;;5003376;28;20255;-68
2023/07/27 14:13:06;;;;;;;5.93;3.00;;;;;;;;;;5002634;28;20205;-69
2023/07/27 14:15:34;;;;;;;8.05;3.45;;;;;;;;;;5003241;28;20293;-68
2023/07/27 14:18:01;;;;;;;3.67;3.40;;;;;;;;;;5004921;28;20244;-68
2023/07/27 14:20:29;;;;;;;4.13;3.63;;;;;;;;;;5006000;28;20310;-68
2023/07/27 14:22:56;;;;;;;4.50;4.05;;;;;;;;;;5004784;28;20216;-69
2023/07/27 14:25:24;;;;;;;5.20;4.00;;;;;;;;;;5004528;28;20209;-68
2023/07/27 14:27:51;;;;;;;6.25;3.90;;;;;;;;;;5004470;28;20225;-68
2023/07/27 14:30:18;;;;;;;4.53;3.70;;;;;;;;;;5005841;28;20197;-68
2023/07/27 14:32:46;;;;;;;4.68;3.80;;;;;;;;;;5005489;28;20225;-69
2023/07/27 14:35:13;;;;;;;4.07;3.67;;;;;;;;;;4998693;28;20215;-68
2023/07/27 14:37:40;;;;;;;4.63;3.80;;;;;;;;;;5001707;28;20209;-69
2023/07/27 14:40:08;;;;;;;5.80;3.70;;;;;;;;;;5006005;28;20217;-69
2023/07/27 14:42:36;;;;;;;4.55;3.70;;;;;;;;;;5006350;28;20196;-68
2023/07/27 14:45:04;;;;;;;4.95;3.33;;;;;;;;;;5004437;28;20204;-69
2023/07/27 14:47:31;;;;;;;4.38;3.97;;;;;;;;;;5004480;28;20229;-69